メインページ
METAR-TAF:

METAR-TAF

空港 :

Dansville Municipal Airport

Dansville, ニューヨーク, アメリカ合衆国

緯度: 42-34-10N, 経度: 077-42-52W, 海抜: 201m

現時点の気象観測

当レポートは49分前の17:54(UTC)に作成
変向風 3kt
気温 32°C
湿度 63%
気圧 1011 hPa
視程: 16.1km
高度3400ftの雲はほとんどない
高度4400ftの雲は散在している
高度7000ftの曇り

METAR: KDSV 191754Z AUTO VRB03KT 10SM FEW034 SCT044 OVC070 32/24 A2986 RMK AO2 SLP114 T03220244 10322 20244 56008

時間: 14:43 (18:43 UTC)


TAF: 見つかりません

4,000以上の空港の気象観測と天気予報(METAR報とTAF報)

利用可能な観測所は地図上に黄色い丸と赤い丸で示す。

丸の上にカーソルを重ねると観測所名を参照できる。

次にクリックすると気象観測と天気予報を参照できる。

マップの切り替え:黒色「×」印の緑ボタンをクリックして拡大、「-」印の緑ボタンをクリックして縮小、緑色の三角印をクリックして隣りの地図に切り替え


METAR-TAF: